Time;durP1;ratioP1;P1;durP2;ratioP2;P2;SDS_P1;SDS_P2;PMS_P1;PMS_P2;Temp;Humidity;BMP_temperature;BMP_pressure;BME280_temperature;BME280_humidity;BME280_pressure;Samples;Min_cycle;Max_cycle;Signal;HPM_P1;HPM_P2
2022/03/25 00:00:30;;;;;;;17.38;9.35;;;;;;;8.81;27.60;101004.63;5108682;28;20031;-82
2022/03/25 00:02:55;;;;;;;20.75;9.38;;;;;;;8.92;27.74;101017.03;5109933;28;20470;-82
2022/03/25 00:05:21;;;;;;;20.40;10.17;;;;;;;8.77;28.26;101019.31;5108310;28;20062;-82
2022/03/25 00:07:46;;;;;;;25.88;10.00;;;;;;;8.75;28.22;101015.91;5107591;28;20050;-82
2022/03/25 00:10:13;;;;;;;20.88;10.98;;;;;;;8.71;28.26;101017.16;5108195;28;20051;-82
2022/03/25 00:12:40;;;;;;;18.45;9.45;;;;;;;8.64;28.24;101009.72;5108331;28;20616;-83
2022/03/25 00:15:05;;;;;;;;;;;;;;;8.68;28.51;101023.66;5108743;28;20137;-82
2022/03/25 00:17:30;;;;;;;;;;;;;;;8.61;28.52;101015.31;5108613;28;19959;-83
2022/03/25 00:19:56;;;;;;;18.23;9.67;;;;;;;8.54;28.45;101016.88;5110038;28;19933;-82
2022/03/25 00:22:23;;;;;;;20.10;9.80;;;;;;;8.52;28.42;101012.66;5109045;28;20472;-83
2022/03/25 00:24:48;;;;;;;18.33;9.13;;;;;;;8.57;28.15;101023.78;5104265;28;20380;-84
2022/03/25 00:27:14;;;;;;;21.45;9.55;;;;;;;8.45;28.28;101021.25;5108464;28;20517;-83
2022/03/25 00:29:41;;;;;;;20.85;9.95;;;;;;;8.51;27.97;101030.56;5109413;28;20058;-84
2022/03/25 00:32:07;;;;;;;18.75;9.52;;;;;;;8.50;28.15;101026.19;5092254;28;20077;-84
2022/03/25 00:34:32;;;;;;;16.10;9.27;;;;;;;8.48;28.06;101021.97;5107280;28;20097;-82
2022/03/25 00:37:00;;;;;;;17.33;8.70;;;;;;;8.45;27.93;101031.97;5106907;28;20050;-82
2022/03/25 00:39:25;;;;;;;19.42;9.48;;;;;;;8.40;27.90;101028.00;5108515;28;20047;-83
2022/03/25 00:41:52;;;;;;;18.00;9.07;;;;;;;8.36;28.15;101031.94;5108876;28;20080;-83
2022/03/25 00:44:20;;;;;;;16.65;9.23;;;;;;;8.43;28.22;101033.09;5111143;28;20295;-82
2022/03/25 00:46:47;;;;;;;17.70;9.15;;;;;;;8.40;28.24;101028.00;5094246;28;20044;-83
2022/03/25 00:49:16;;;;;;;19.05;8.82;;;;;;;8.30;28.41;101030.63;5114113;28;20028;-79
2022/03/25 00:51:43;;;;;;;14.02;8.30;;;;;;;8.32;28.49;101041.22;5109170;28;20063;-81
2022/03/25 00:54:09;;;;;;;21.52;9.20;;;;;;;8.16;28.68;101036.38;5111823;28;20551;-80
2022/03/25 00:56:35;;;;;;;16.77;9.23;;;;;;;8.08;28.94;101045.09;5110190;28;20031;-80
2022/03/25 00:59:00;;;;;;;22.83;9.85;;;;;;;8.07;28.88;101056.75;5087283;28;20038;-79
2022/03/25 01:01:27;;;;;;;19.40;9.20;;;;;;;8.06;28.85;101041.69;5109973;28;20122;-80
2022/03/25 01:03:53;;;;;;;16.50;9.30;;;;;;;7.97;29.10;101048.69;5111943;28;20039;-81
2022/03/25 01:06:18;;;;;;;16.30;8.88;;;;;;;7.97;28.97;101058.56;5110300;28;20032;-80
2022/03/25 01:08:44;;;;;;;21.17;8.87;;;;;;;7.83;29.17;101041.88;5113960;28;20032;-82
2022/03/25 01:11:11;;;;;;;16.15;8.90;;;;;;;7.79;28.86;101050.31;5094983;28;20054;-82
2022/03/25 01:13:39;;;;;;;14.52;9.10;;;;;;;7.83;29.05;101052.56;5112540;28;20055;-79
2022/03/25 01:16:07;;;;;;;17.65;9.05;;;;;;;7.77;29.12;101057.63;5094260;28;20062;-83
2022/03/25 01:18:32;;;;;;;16.73;8.65;;;;;;;7.80;28.94;101060.03;5085106;28;20133;-80
2022/03/25 01:20:58;;;;;;;15.27;8.53;;;;;;;7.82;28.73;101066.97;5109846;28;20427;-80
2022/03/25 01:23:24;;;;;;;17.65;8.10;;;;;;;7.82;28.62;101060.75;5111545;28;20495;-80
2022/03/25 01:25:50;;;;;;;16.95;8.48;;;;;;;7.72;28.83;101049.13;5111654;28;20276;-79
2022/03/25 01:28:15;;;;;;;17.87;8.13;;;;;;;7.78;28.95;101068.19;5095157;28;20043;-80
2022/03/25 01:30:42;;;;;;;16.20;8.50;;;;;;;7.77;28.62;101063.84;5111160;28;20785;-79
2022/03/25 01:33:10;;;;;;;16.25;8.27;;;;;;;7.66;29.30;101055.03;5104728;28;20779;-81
2022/03/25 01:35:37;;;;;;;14.70;8.93;;;;;;;7.67;29.11;101059.41;5098009;28;20187;-82
2022/03/25 01:38:04;;;;;;;18.08;8.75;;;;;;;7.61;29.31;101060.78;5103904;28;20035;-82
2022/03/25 01:40:33;;;;;;;18.02;8.57;;;;;;;7.44;29.78;101056.03;5079155;28;20180;-81
2022/03/25 01:42:59;;;;;;;15.38;8.35;;;;;;;7.44;29.81;101064.03;5107721;28;20115;-79
2022/03/25 01:45:54;;;;;;;16.92;8.70;;;;;;;7.46;29.90;101075.47;5097452;28;20081;-80
2022/03/25 01:48:21;;;;;;;15.15;8.18;;;;;;;7.28;30.06;101062.69;5095996;28;20050;-80
2022/03/25 01:50:47;;;;;;;16.70;8.85;;;;;;;7.35;30.33;101074.56;5077109;28;20038;-80
2022/03/25 01:53:20;;;;;;;17.80;8.77;;;;;;;7.24;30.19;101066.59;5075838;28;20038;-81
2022/03/25 01:55:49;;;;;;;19.95;9.07;;;;;;;7.27;30.49;101077.03;5108584;28;20043;-83
2022/03/25 01:58:14;;;;;;;16.10;8.77;;;;;;;7.22;30.54;101083.75;5108288;28;20038;-81
2022/03/25 02:00:40;;;;;;;17.03;8.60;;;;;;;7.18;30.51;101088.50;5110470;28;20035;-79
2022/03/25 02:03:06;;;;;;;;;;;;;;;7.16;30.79;101080.63;5089433;28;20101;-80
2022/03/25 02:05:35;;;;;;;;;;;;;;;7.12;30.71;101087.19;5103063;28;19916;-79
2022/03/25 02:08:02;;;;;;;15.35;8.10;;;;;;;7.14;30.86;101081.69;5102491;28;19913;-80
2022/03/25 02:10:27;;;;;;;;;;;;;;;7.07;31.08;101081.38;5094761;28;20028;-81
2022/03/25 02:12:54;;;;;;;16.52;8.30;;;;;;;6.90;31.32;101080.09;5106078;28;19953;-80
2022/03/25 02:15:33;;;;;;;17.38;8.88;;;;;;;6.88;31.32;101079.41;5106393;28;20035;-81
2022/03/25 02:18:01;;;;;;;21.05;8.43;;;;;;;6.95;31.03;101088.59;5103943;28;20044;-81
2022/03/25 02:20:27;;;;;;;16.23;8.50;;;;;;;6.96;31.16;101076.06;5095075;28;20494;-81
2022/03/25 02:22:52;;;;;;;15.30;7.97;;;;;;;7.11;31.03;101098.84;5096890;28;20059;-80
2022/03/25 02:25:20;;;;;;;18.57;8.73;;;;;;;7.01;31.10;101089.06;5104158;28;20518;-81
2022/03/25 02:27:46;;;;;;;18.15;8.40;;;;;;;6.91;31.46;101092.50;5110782;28;20111;-80
2022/03/25 02:30:13;;;;;;;20.33;8.63;;;;;;;6.96;31.28;101095.63;5109541;28;20047;-81
2022/03/25 02:32:39;;;;;;;18.60;9.00;;;;;;;6.88;31.87;101089.22;5110074;28;20039;-80
2022/03/25 02:35:05;;;;;;;;;;;;;;;6.75;32.10;101094.72;5109530;28;20047;-79
2022/03/25 02:37:30;;;;;;;;;;;;;;;6.67;32.20;101110.53;5107932;28;19926;-80
2022/03/25 02:39:57;;;;;;;14.83;8.37;;;;;;;6.58;32.24;101100.59;5072383;28;20022;-80
2022/03/25 02:42:23;;;;;;;17.63;8.25;;;;;;;6.64;32.20;101105.44;5071353;28;20074;-79
2022/03/25 02:44:48;;;;;;;19.92;8.50;;;;;;;6.84;32.00;101090.47;5092707;28;20055;-81
2022/03/25 02:47:15;;;;;;;16.40;9.00;;;;;;;6.77;32.23;101090.13;5088144;28;20047;-79
2022/03/25 02:49:41;;;;;;;15.27;8.85;;;;;;;6.80;31.98;101099.69;5102582;28;20123;-80
2022/03/25 02:52:06;;;;;;;14.83;8.57;;;;;;;6.87;31.98;101107.06;5072611;28;20169;-80
2022/03/25 02:54:32;;;;;;;14.95;8.93;;;;;;;6.71;32.34;101090.59;5110665;28;20031;-81
2022/03/25 02:56:58;;;;;;;15.63;8.90;;;;;;;6.70;32.17;101091.59;5109175;28;20027;-80
2022/03/25 02:59:25;;;;;;;16.42;9.38;;;;;;;6.72;32.41;101095.00;5092264;28;20032;-79
2022/03/25 03:01:50;;;;;;;15.93;8.32;;;;;;;6.66;32.64;101103.50;5108794;28;20038;-80
2022/03/25 03:04:17;;;;;;;15.57;8.65;;;;;;;6.61;32.65;101105.69;5107825;28;20419;-80
2022/03/25 03:06:43;;;;;;;22.65;8.68;;;;;;;6.66;32.75;101119.53;5106379;28;20419;-80
2022/03/25 03:09:09;;;;;;;17.70;9.25;;;;;;;6.55;32.88;101097.22;5084720;28;20036;-80
2022/03/25 03:11:35;;;;;;;18.38;8.93;;;;;;;6.62;32.65;101104.72;5087123;28;20032;-81
2022/03/25 03:14:01;;;;;;;15.85;9.13;;;;;;;6.55;32.93;101123.94;5090625;28;20373;-80
2022/03/25 03:16:27;;;;;;;14.32;8.77;;;;;;;6.56;32.86;101092.72;5086609;28;20031;-79
2022/03/25 03:18:52;;;;;;;17.77;9.17;;;;;;;6.62;32.93;101112.72;5094642;28;20044;-79
2022/03/25 03:21:20;;;;;;;18.10;8.80;;;;;;;6.69;32.81;101130.78;5095416;28;20040;-80
2022/03/25 03:23:47;;;;;;;14.23;8.65;;;;;;;6.66;33.01;101135.56;5109110;28;20297;-79
2022/03/25 03:26:13;;;;;;;17.83;9.18;;;;;;;6.63;33.21;101125.97;5107445;28;20039;-81
2022/03/25 03:28:38;;;;;;;18.13;8.90;;;;;;;6.67;33.03;101131.91;5108707;28;20039;-81
2022/03/25 03:31:04;;;;;;;18.20;8.85;;;;;;;6.61;33.17;101127.06;5109786;28;20139;-81
2022/03/25 03:33:29;;;;;;;15.73;8.73;;;;;;;6.64;33.23;101142.84;5112594;28;20039;-80
2022/03/25 03:35:55;;;;;;;19.27;8.80;;;;;;;6.44;33.68;101131.94;5111079;28;20384;-80
2022/03/25 03:38:22;;;;;;;20.60;9.20;;;;;;;6.53;33.23;101149.91;5092397;28;20032;-81
2022/03/25 03:40:49;;;;;;;23.58;9.23;;;;;;;6.46;33.31;101143.38;5100465;28;20071;-82
2022/03/25 03:43:15;;;;;;;19.50;9.75;;;;;;;6.48;33.33;101146.72;5112275;28;20077;-80
2022/03/25 03:45:41;;;;;;;16.25;8.95;;;;;;;6.52;33.55;101158.03;5109283;28;20035;-80
2022/03/25 03:48:07;;;;;;;16.97;10.10;;;;;;;6.44;33.63;101164.00;5111674;28;20097;-80
2022/03/25 03:50:32;;;;;;;20.10;9.20;;;;;;;6.31;33.93;101157.91;5099527;28;20034;-81
2022/03/25 03:52:59;;;;;;;19.13;8.83;;;;;;;6.32;33.77;101180.97;5091652;28;20418;-82
2022/03/25 03:55:26;;;;;;;17.73;9.23;;;;;;;6.38;33.89;101175.16;5113140;28;20035;-80
2022/03/25 03:57:52;;;;;;;18.15;9.05;;;;;;;6.38;33.77;101168.97;5113460;28;20055;-80
2022/03/25 04:00:20;;;;;;;20.60;9.93;;;;;;;6.39;33.67;101173.31;5112162;28;20571;-81
2022/03/25 04:02:47;;;;;;;17.95;9.60;;;;;;;6.49;33.64;101183.19;5113356;28;20432;-81
2022/03/25 04:05:14;;;;;;;18.50;9.25;;;;;;;6.46;33.35;101182.56;5078715;28;20058;-82
2022/03/25 04:07:51;;;;;;;20.00;10.27;;;;;;;6.41;33.72;101184.75;5095377;28;20032;-81
2022/03/25 04:10:18;;;;;;;18.42;9.20;;;;;;;6.40;33.60;101178.56;5110510;28;20043;-82
2022/03/25 04:12:44;;;;;;;17.40;8.93;;;;;;;6.66;33.06;101194.34;5104293;28;20042;-81
2022/03/25 04:15:10;;;;;;;20.10;9.20;;;;;;;6.81;33.16;101185.06;5107773;28;20456;-80
2022/03/25 04:17:39;;;;;;;19.13;9.57;;;;;;;6.87;32.70;101186.41;5111873;28;20031;-81
2022/03/25 04:20:06;;;;;;;17.55;9.52;;;;;;;6.94;32.74;101185.78;5107427;27;20557;-83
2022/03/25 04:22:35;;;;;;;20.17;9.95;;;;;;;6.82;32.83;101183.28;5105441;28;20032;-83
2022/03/25 04:25:02;;;;;;;18.75;9.27;;;;;;;6.84;31.98;101184.84;5094115;28;20040;-82
2022/03/25 04:27:28;;;;;;;19.05;9.68;;;;;;;6.84;32.29;101176.84;5094743;28;20032;-81
2022/03/25 04:29:55;;;;;;;21.35;9.55;;;;;;;6.93;32.58;101181.44;5110273;28;20088;-80
2022/03/25 04:32:20;;;;;;;19.30;9.90;;;;;;;7.05;32.48;101182.25;5109774;28;20059;-82
2022/03/25 04:34:46;;;;;;;19.00;10.00;;;;;;;7.11;32.27;101191.59;5111078;28;20531;-81
2022/03/25 04:37:11;;;;;;;21.17;9.50;;;;;;;7.20;32.26;101193.50;5090948;28;20043;-82
2022/03/25 04:39:37;;;;;;;21.37;9.67;;;;;;;7.34;31.42;101184.34;5079936;28;20638;-81
2022/03/25 04:42:03;;;;;;;16.05;8.90;;;;;;;7.36;31.17;101182.41;5104378;28;20035;-82
2022/03/25 04:44:29;;;;;;;19.83;8.95;;;;;;;7.40;31.58;101178.50;5100934;28;20058;-80
2022/03/25 04:46:56;;;;;;;19.23;9.73;;;;;;;7.55;31.61;101203.13;5109105;28;20023;-81
2022/03/25 04:49:23;;;;;;;26.90;9.68;;;;;;;7.67;31.47;101206.59;5095301;28;20131;-82
2022/03/25 04:51:52;;;;;;;18.50;10.52;;;;;;;7.63;31.56;101215.84;5097878;28;20051;-80
2022/03/25 04:54:19;;;;;;;24.33;9.98;;;;;;;7.54;31.62;101209.47;5116432;28;20043;-81
2022/03/25 04:56:44;;;;;;;18.45;9.57;;;;;;;7.52;31.17;101209.59;5110993;28;20047;-83
2022/03/25 04:59:11;;;;;;;26.20;14.07;;;;;;;7.71;30.71;101216.91;5092187;28;20042;-82
2022/03/25 05:01:36;;;;;;;23.90;12.88;;;;;;;7.74;30.46;101219.31;5090844;28;20469;-83
2022/03/25 05:04:02;;;;;;;18.70;9.53;;;;;;;7.89;30.39;101237.75;5103272;28;20055;-85
2022/03/25 05:06:28;;;;;;;18.80;8.95;;;;;;;7.89;30.52;101227.03;5110478;28;20023;-83
2022/03/25 05:08:55;;;;;;;16.27;9.27;;;;;;;8.02;30.45;101244.63;5092830;28;20050;-84
2022/03/25 05:11:25;;;;;;;26.88;11.70;;;;;;;7.80;30.81;101252.78;5109106;28;20741;-83
2022/03/25 05:13:51;;;;;;;23.70;9.57;;;;;;;7.69;30.92;101247.47;5109648;28;20056;-83
2022/03/25 05:16:16;;;;;;;19.55;10.05;;;;;;;7.76;30.70;101238.78;5110708;28;20058;-82
2022/03/25 05:18:43;;;;;;;20.13;10.03;;;;;;;7.99;30.21;101246.72;5108845;28;20043;-83
2022/03/25 05:21:11;;;;;;;20.65;10.20;;;;;;;7.92;30.55;101256.25;5128803;28;20020;-83
2022/03/25 05:23:37;;;;;;;25.88;9.50;;;;;;;7.65;30.59;101246.84;5113807;28;20096;-82
2022/03/25 05:26:02;;;;;;;22.90;9.63;;;;;;;7.74;30.59;101246.09;5107044;28;20472;-85
2022/03/25 05:28:29;;;;;;;25.90;10.65;;;;;;;7.76;30.56;101260.19;5091797;28;20118;-87
2022/03/25 05:30:54;;;;;;;27.58;11.63;;;;;;;7.78;30.30;101252.91;5097504;27;20043;-83
2022/03/25 05:33:20;;;;;;;25.03;10.93;;;;;;;7.77;30.41;101247.66;5105407;28;20032;-84
2022/03/25 05:35:46;;;;;;;18.23;10.18;;;;;;;7.95;30.10;101256.81;5109861;28;20653;-81
2022/03/25 05:38:13;;;;;;;23.70;10.57;;;;;;;8.03;29.78;101253.53;5110659;28;20043;-82
2022/03/25 05:40:39;;;;;;;23.02;10.80;;;;;;;8.27;29.25;101263.13;5092396;28;20455;-81
2022/03/25 05:43:07;;;;;;;18.75;10.73;;;;;;;9.20;28.35;101254.09;5125523;28;20051;-80
2022/03/25 05:45:33;;;;;;;21.55;11.45;;;;;;;11.16;25.71;101254.53;5108285;28;20030;-83
2022/03/25 05:47:58;;;;;;;23.13;11.70;;;;;;;12.28;23.99;101239.78;5116784;28;20027;-82
2022/03/25 05:50:25;;;;;;;25.10;12.00;;;;;;;13.82;22.13;101250.53;5089068;28;20054;-82
2022/03/25 05:52:51;;;;;;;41.92;24.02;;;;;;;14.85;21.26;101250.75;5088129;28;20503;-82
2022/03/25 05:55:18;;;;;;;30.17;16.65;;;;;;;15.43;20.87;101245.06;5091959;28;20035;-84
2022/03/25 05:57:43;;;;;;;26.20;15.43;;;;;;;16.85;20.26;101251.66;5108626;28;20039;-84
2022/03/25 06:00:09;;;;;;;25.65;14.77;;;;;;;17.04;19.67;101242.94;5107303;28;20467;-82
2022/03/25 06:02:36;;;;;;;27.77;14.57;;;;;;;17.76;19.65;101241.22;5084462;28;20062;-80
2022/03/25 06:05:04;;;;;;;33.85;16.63;;;;;;;18.75;18.75;101256.69;5102860;28;20214;-81
2022/03/25 06:07:39;;;;;;;29.08;16.27;;;;;;;19.82;18.04;101255.28;5096678;28;20035;-85
2022/03/25 06:10:08;;;;;;;27.85;15.55;;;;;;;20.71;17.19;101259.47;5093247;28;20028;-84
2022/03/25 06:12:34;;;;;;;24.65;14.23;;;;;;;21.28;16.17;101246.88;5110538;28;20396;-84
2022/03/25 06:15:00;;;;;;;28.80;15.13;;;;;;;21.82;15.97;101257.53;5110381;28;20034;-87
2022/03/25 06:17:27;;;;;;;;;;;;;;;22.71;15.16;101263.75;5076428;28;20031;-85
2022/03/25 06:19:53;;;;;;;29.42;14.98;;;;;;;22.95;15.02;101265.59;5091736;28;19973;-86
2022/03/25 06:22:18;;;;;;;33.60;14.98;;;;;;;24.43;14.46;101257.81;5097831;28;20028;-82
2022/03/25 06:24:45;;;;;;;31.63;15.55;;;;;;;24.28;13.95;101260.19;5100798;28;20027;-84
2022/03/25 06:27:12;;;;;;;24.63;15.45;;;;;;;23.96;13.77;101254.19;5108098;28;20043;-86
2022/03/25 06:29:38;;;;;;;29.70;16.17;;;;;;;24.57;13.20;101250.19;5105264;28;20035;-87
2022/03/25 06:32:06;;;;;;;24.38;14.00;;;;;;;24.42;12.92;101252.56;5114201;28;20042;-84
2022/03/25 06:34:31;;;;;;;21.52;13.15;;;;;;;25.14;12.32;101259.66;5104323;28;20491;-80
2022/03/25 06:36:57;;;;;;;41.08;15.05;;;;;;;24.79;12.86;101257.81;5098898;28;20080;-82
2022/03/25 06:39:23;;;;;;;25.35;13.85;;;;;;;25.03;12.43;101253.97;5102544;28;20032;-80
2022/03/25 06:41:48;;;;;;;29.55;15.40;;;;;;;25.27;12.36;101260.25;5100338;28;20020;-83
2022/03/25 06:44:14;;;;;;;30.30;15.18;;;;;;;24.74;12.82;101254.94;5085647;28;20032;-80
2022/03/25 06:46:39;;;;;;;31.38;14.20;;;;;;;24.96;13.15;101253.25;5097775;28;20095;-81
2022/03/25 06:49:07;;;;;;;24.67;13.85;;;;;;;23.87;14.07;101266.56;5102579;28;20019;-81
2022/03/25 06:51:32;;;;;;;20.23;13.98;;;;;;;23.92;14.08;101247.47;5093595;28;20034;-83
2022/03/25 06:53:58;;;;;;;17.70;13.40;;;;;;;25.29;13.54;101268.28;5105191;28;20035;-81
2022/03/25 06:56:24;;;;;;;25.25;14.35;;;;;;;25.86;12.18;101268.28;5096071;28;20032;-80
2022/03/25 06:58:49;;;;;;;25.33;14.77;;;;;;;25.79;12.77;101267.56;5085986;28;20028;-80
2022/03/25 07:01:16;;;;;;;27.17;14.48;;;;;;;26.09;11.92;101260.94;5098397;28;20076;-81
2022/03/25 07:03:42;;;;;;;19.38;13.98;;;;;;;27.11;11.71;101270.75;5097537;28;20043;-81
2022/03/25 07:06:08;;;;;;;26.73;14.00;;;;;;;26.44;11.92;101257.09;5062472;28;20127;-82
2022/03/25 07:08:34;;;;;;;29.80;14.98;;;;;;;27.98;11.66;101265.41;5099947;28;20039;-84
2022/03/25 07:11:00;;;;;;;28.55;15.93;;;;;;;26.82;12.15;101263.75;5085684;28;20035;-80
2022/03/25 07:13:26;;;;;;;30.20;14.88;;;;;;;27.19;11.19;101269.47;5108504;28;20069;-80
2022/03/25 07:15:52;;;;;;;30.48;14.65;;;;;;;27.12;10.93;101264.13;5115161;28;20046;-81
2022/03/25 07:18:18;;;;;;;31.83;15.27;;;;;;;27.03;12.17;101259.31;5115144;28;20027;-81
2022/03/25 07:20:43;;;;;;;30.90;15.05;;;;;;;27.88;10.39;101263.34;5112850;28;20463;-80
2022/03/25 07:23:09;;;;;;;24.50;14.10;;;;;;;28.30;10.88;101259.00;5080435;28;20179;-78
2022/03/25 07:25:35;;;;;;;55.90;16.45;;;;;;;28.83;10.24;101262.69;5109570;28;20043;-81
2022/03/25 07:28:01;;;;;;;32.88;14.93;;;;;;;29.31;10.64;101257.09;5098667;28;20040;-82
2022/03/25 07:30:26;;;;;;;20.60;11.93;;;;;;;28.52;10.44;101253.41;5113222;28;20028;-82
2022/03/25 07:32:52;;;;;;;16.85;10.05;;;;;;;28.30;10.91;101246.00;5095270;28;20059;-82
2022/03/25 07:35:18;;;;;;;19.35;11.70;;;;;;;28.20;11.00;101257.00;5107609;28;20054;-82
2022/03/25 07:37:44;;;;;;;29.70;12.38;;;;;;;27.99;11.82;101256.00;5085358;28;20070;-83
2022/03/25 07:40:10;;;;;;;20.70;9.32;;;;;;;27.37;11.49;101254.53;5116031;28;20415;-82
2022/03/25 07:42:40;;;;;;;14.15;9.13;;;;;;;27.47;11.74;101254.63;5111334;28;20043;-84
2022/03/25 07:45:08;;;;;;;15.07;8.80;;;;;;;26.44;12.23;101248.84;5086655;28;20028;-84
2022/03/25 07:47:35;;;;;;;14.70;9.55;;;;;;;26.02;12.25;101228.06;5106287;28;20023;-81
2022/03/25 07:50:02;;;;;;;13.23;9.07;;;;;;;25.67;12.15;101237.34;5107418;28;20040;-81
2022/03/25 07:52:27;;;;;;;15.02;9.48;;;;;;;25.87;12.93;101239.66;5113042;28;20140;-82
2022/03/25 07:54:53;;;;;;;13.32;8.73;;;;;;;25.98;12.68;101232.38;5109715;28;20089;-81
2022/03/25 07:57:18;;;;;;;16.50;8.63;;;;;;;26.55;12.37;101239.66;5110142;28;20081;-81
2022/03/25 07:59:44;;;;;;;16.67;8.77;;;;;;;26.94;11.90;101245.97;5109895;28;20042;-80
2022/03/25 08:02:11;;;;;;;14.95;9.07;;;;;;;27.76;11.20;101248.84;5110765;28;20053;-82
2022/03/25 08:04:36;;;;;;;11.93;9.38;;;;;;;27.67;11.32;101242.94;5108575;28;20547;-83
2022/03/25 08:07:03;;;;;;;16.50;9.70;;;;;;;26.62;12.13;101237.56;5086636;28;20027;-85
2022/03/25 08:09:28;;;;;;;14.57;10.18;;;;;;;25.92;12.45;101243.56;5103650;28;20040;-84
2022/03/25 08:11:54;;;;;;;18.23;9.80;;;;;;;26.17;12.52;101235.72;5111488;28;20024;-83
2022/03/25 08:14:21;;;;;;;21.20;10.25;;;;;;;26.36;12.26;101238.22;5104929;28;20043;-83
2022/03/25 08:16:47;;;;;;;17.90;9.80;;;;;;;26.35;12.32;101231.06;5082249;28;20032;-83
2022/03/25 08:19:12;;;;;;;11.35;9.30;;;;;;;26.12;12.61;101230.13;5106101;28;20062;-83
2022/03/25 08:21:38;;;;;;;16.67;8.93;;;;;;;25.64;13.13;101226.00;5106252;28;20072;-84
2022/03/25 08:29:52;;;;;;;12.80;9.40;;;;;;;26.43;12.19;101222.34;5050317;28;20075;-85
2022/03/25 08:32:19;;;;;;;15.95;8.65;;;;;;;26.68;12.51;101214.47;5068595;28;20056;-85
2022/03/25 08:34:45;;;;;;;22.02;9.77;;;;;;;27.54;12.07;101215.78;5053395;28;20047;-85
2022/03/25 08:37:11;;;;;;;17.08;8.85;;;;;;;27.77;11.75;101220.16;5111689;28;20028;-84
2022/03/25 08:39:36;;;;;;;13.88;9.02;;;;;;;27.55;11.63;101222.97;5113247;28;20509;-85
2022/03/25 08:42:02;;;;;;;13.27;8.93;;;;;;;28.26;11.46;101222.78;5115488;28;20508;-85
2022/03/25 08:44:28;;;;;;;18.85;9.88;;;;;;;28.13;11.33;101209.41;5115153;28;20522;-84
2022/03/25 08:46:53;;;;;;;16.02;9.13;;;;;;;28.07;11.32;101199.41;5124297;28;20011;-84
2022/03/25 08:49:19;;;;;;;12.55;8.40;;;;;;;27.76;11.32;101221.22;5127501;28;20083;-84
2022/03/25 08:51:44;;;;;;;12.68;8.77;;;;;;;27.12;11.69;101219.97;5113285;28;20039;-83
2022/03/25 08:54:10;;;;;;;14.43;8.98;;;;;;;26.48;12.06;101216.88;5112836;28;20039;-84
2022/03/25 08:56:36;;;;;;;12.85;9.38;;;;;;;27.43;11.23;101222.28;5112734;28;20047;-85
2022/03/25 08:59:02;;;;;;;16.33;9.13;;;;;;;27.50;11.90;101218.22;5113762;28;20026;-84
2022/03/25 09:01:28;;;;;;;12.90;9.40;;;;;;;29.00;10.38;101220.97;5111554;28;20036;-84
2022/03/25 09:03:54;;;;;;;15.25;9.07;;;;;;;29.53;10.14;101223.66;5110892;28;20039;-83
2022/03/25 09:06:19;;;;;;;12.48;8.68;;;;;;;29.04;10.46;101208.28;5111963;28;20027;-83
2022/03/25 09:08:45;;;;;;;16.33;8.68;;;;;;;27.45;11.41;101215.41;5112227;28;20032;-84
2022/03/25 09:11:10;;;;;;;13.27;8.50;;;;;;;27.91;11.50;101215.88;5112157;28;20050;-84
2022/03/25 09:13:36;;;;;;;13.48;8.85;;;;;;;28.71;10.38;101204.81;5111660;28;20028;-84
2022/03/25 09:16:02;;;;;;;12.55;9.02;;;;;;;27.85;10.66;101205.88;5113010;28;20039;-84
2022/03/25 09:18:28;;;;;;;23.80;9.07;;;;;;;28.73;10.76;101207.28;5118658;28;20024;-83
2022/03/25 09:20:53;;;;;;;11.45;8.23;;;;;;;28.04;11.13;101214.59;5117305;28;20020;-83
2022/03/25 09:23:19;;;;;;;13.07;8.65;;;;;;;28.31;10.57;101192.41;5099782;28;20040;-83
2022/03/25 09:25:48;;;;;;;13.85;8.48;;;;;;;28.98;10.10;101212.94;5120962;28;20051;-83
2022/03/25 09:28:13;;;;;;;17.75;9.15;;;;;;;27.03;11.18;101213.25;5082615;28;20035;-84
2022/03/25 09:30:39;;;;;;;19.10;9.32;;;;;;;28.12;10.98;101204.97;5116022;28;20039;-84
2022/03/25 09:33:07;;;;;;;20.10;9.52;;;;;;;28.67;10.68;101200.91;5117427;28;20047;-83
2022/03/25 09:35:33;;;;;;;15.73;9.23;;;;;;;29.02;10.02;101194.69;5106077;28;20067;-84
2022/03/25 09:37:59;;;;;;;17.98;9.55;;;;;;;28.66;10.84;101196.50;5111835;28;20051;-84
2022/03/25 09:40:26;;;;;;;16.45;9.30;;;;;;;29.58;9.95;101204.28;5115515;28;20031;-85
2022/03/25 09:42:52;;;;;;;15.55;9.35;;;;;;;30.19;10.01;101203.47;5116278;28;20073;-84
2022/03/25 09:45:18;;;;;;;13.70;8.65;;;;;;;29.77;10.22;101193.50;5124765;28;20028;-84
2022/03/25 09:47:47;;;;;;;13.68;9.32;;;;;;;29.39;10.02;101195.66;5124422;27;20040;-84
2022/03/25 09:50:17;;;;;;;19.17;9.05;;;;;;;30.25;9.57;101192.09;5107375;28;20039;-83
2022/03/25 09:52:49;;;;;;;16.88;9.35;;;;;;;30.16;9.50;101209.59;5107720;28;20034;-84
2022/03/25 09:55:15;;;;;;;19.05;10.00;;;;;;;27.80;10.41;101191.97;5093911;28;20036;-85
2022/03/25 09:57:43;;;;;;;15.45;10.75;;;;;;;28.52;10.38;101198.09;5121826;28;20055;-85
2022/03/25 10:00:13;;;;;;;15.85;9.43;;;;;;;28.79;10.28;101195.16;5121534;28;20164;-84
2022/03/25 10:02:59;;;;;;;15.57;9.50;;;;;;;29.21;10.42;101200.59;5088977;28;20415;-83
2022/03/25 10:05:26;;;;;;;17.48;9.35;;;;;;;30.72;9.18;101190.06;5121733;28;20085;-84
2022/03/25 10:07:56;;;;;;;14.50;9.52;;;;;;;28.34;10.81;101199.31;5086300;28;20050;-83
2022/03/25 10:10:25;;;;;;;15.60;9.65;;;;;;;28.97;9.95;101185.56;5123996;28;20023;-84
2022/03/25 10:13:02;;;;;;;11.27;9.13;;;;;;;29.72;9.53;101201.84;5096811;28;20024;-83
2022/03/25 10:15:37;;;;;;;12.82;8.98;;;;;;;30.68;9.35;101206.44;5082519;28;20039;-84
2022/03/25 10:18:07;;;;;;;11.60;9.30;;;;;;;31.32;8.82;101198.38;5100091;28;20065;-83
2022/03/25 10:20:37;;;;;;;15.57;10.05;;;;;;;32.18;8.37;101176.59;5103392;28;20032;-84
2022/03/25 10:23:20;;;;;;;12.13;9.55;;;;;;;32.34;8.10;101200.34;5108203;28;20026;-85
2022/03/25 10:25:55;;;;;;;17.83;9.93;;;;;;;32.37;8.35;101185.00;5127382;28;20027;-82
2022/03/25 10:28:31;;;;;;;16.35;9.38;;;;;;;30.10;9.21;101172.69;5124927;28;20309;-84
2022/03/25 10:31:01;;;;;;;17.17;9.82;;;;;;;27.02;11.30;101196.94;5110150;28;20035;-84
2022/03/25 10:33:36;;;;;;;14.95;9.25;;;;;;;29.08;10.67;101201.13;5110137;28;20078;-84
2022/03/25 10:36:09;;;;;;;11.85;9.43;;;;;;;30.34;9.70;101195.13;5105696;28;20027;-85
2022/03/25 10:38:44;;;;;;;15.52;9.40;;;;;;;27.02;11.97;101197.81;5114303;28;20156;-84
2022/03/25 10:41:10;;;;;;;14.13;9.10;;;;;;;26.77;11.92;101191.97;5114326;28;20031;-83
2022/03/25 10:43:53;;;;;;;13.77;9.15;;;;;;;28.09;11.32;101200.81;5119038;28;20032;-84
2022/03/25 10:46:36;;;;;;;15.27;8.88;;;;;;;29.46;10.46;101194.28;5096729;28;20028;-84
2022/03/25 10:49:05;;;;;;;14.32;8.70;;;;;;;29.18;10.59;101192.84;5099420;28;20112;-83
2022/03/25 10:51:31;;;;;;;13.50;9.18;;;;;;;28.32;11.38;101194.06;5118640;28;20024;-83
2022/03/25 10:54:02;;;;;;;18.80;9.65;;;;;;;28.99;10.92;101191.66;5116908;28;20093;-83
2022/03/25 10:56:29;;;;;;;16.48;9.73;;;;;;;24.72;13.55;101191.94;5099404;28;20498;-83
2022/03/25 10:58:56;;;;;;;22.48;11.73;;;;;;;24.59;13.91;101200.47;5113710;28;20070;-83
2022/03/25 11:01:21;;;;;;;16.00;9.73;;;;;;;24.89;13.42;101193.94;5113338;28;20024;-83
2022/03/25 11:03:53;;;;;;;19.15;10.02;;;;;;;26.66;11.97;101191.81;5115782;28;20817;-83
2022/03/25 11:06:19;;;;;;;14.73;8.93;;;;;;;25.70;12.68;101180.94;5114660;28;20427;-83
2022/03/25 11:08:45;;;;;;;17.65;9.40;;;;;;;25.03;13.48;101184.34;5095418;28;20042;-80
2022/03/25 11:11:11;;;;;;;16.95;9.25;;;;;;;23.33;14.75;101193.22;5099657;28;20036;-80
2022/03/25 11:13:39;;;;;;;15.50;9.60;;;;;;;23.09;14.96;101199.69;5104450;28;20445;-79
2022/03/25 11:16:07;;;;;;;16.42;9.52;;;;;;;22.10;15.80;101186.78;5063419;28;20056;-81
2022/03/25 11:18:32;;;;;;;15.13;9.50;;;;;;;24.70;13.90;101193.28;5090224;28;20523;-82
2022/03/25 11:20:58;;;;;;;12.70;9.90;;;;;;;24.41;14.47;101190.41;5088411;28;20031;-80
2022/03/25 11:23:28;;;;;;;16.13;10.10;;;;;;;22.33;15.26;101190.78;5105008;28;20039;-79
2022/03/25 11:25:57;;;;;;;19.88;10.65;;;;;;;23.16;14.67;101190.28;5114271;28;20069;-82